Time;durP1;ratioP1;P1;durP2;ratioP2;P2;SDS_P1;SDS_P2;PMS_P1;PMS_P2;Temp;Humidity;BMP_temperature;BMP_pressure;BME280_temperature;BME280_humidity;BME280_pressure;Samples;Min_cycle;Max_cycle;Signal;HPM_P1;HPM_P2
2024/03/25 00:00:43;;;;;;;5.18;2.10;;;10.00;77.80;;;;;;4975486;28;20533;-33
2024/03/25 00:03:09;;;;;;;5.18;1.95;;;10.10;77.80;;;;;;4975112;28;20035;-35
2024/03/25 00:05:35;;;;;;;6.63;2.30;;;10.10;77.80;;;;;;4978043;28;20054;-35
2024/03/25 00:08:00;;;;;;;4.45;2.08;;;10.00;77.80;;;;;;4978272;28;20034;-33
2024/03/25 00:10:26;;;;;;;5.22;2.08;;;10.00;77.80;;;;;;4979011;28;20023;-36
2024/03/25 00:12:54;;;;;;;7.60;2.35;;;9.90;77.80;;;;;;4975904;28;20031;-36
2024/03/25 00:15:20;;;;;;;7.65;2.30;;;10.00;77.80;;;;;;4965089;28;20019;-35
2024/03/25 00:17:47;;;;;;;7.05;2.10;;;9.90;77.70;;;;;;4977111;28;20019;-36
2024/03/25 00:20:15;;;;;;;4.70;1.90;;;9.90;77.80;;;;;;4970546;28;20069;-38
2024/03/25 00:22:41;;;;;;;8.13;2.10;;;9.90;77.80;;;;;;4976170;28;20038;-38
2024/03/25 00:25:07;;;;;;;5.05;2.17;;;9.90;77.80;;;;;;4968313;28;20031;-38
2024/03/25 00:27:33;;;;;;;6.50;2.10;;;9.90;77.90;;;;;;4972014;28;20037;-36
2024/03/25 00:29:58;;;;;;;6.30;2.40;;;9.90;77.80;;;;;;4981237;28;20026;-33
2024/03/25 00:32:24;;;;;;;5.30;2.10;;;9.90;77.90;;;;;;4977578;28;20019;-33
2024/03/25 00:34:50;;;;;;;4.47;2.50;;;9.80;77.80;;;;;;4973331;28;20023;-33
2024/03/25 00:37:16;;;;;;;4.20;2.08;;;9.80;77.80;;;;;;4987898;28;20066;-34
2024/03/25 00:39:41;;;;;;;4.63;1.80;;;9.80;77.80;;;;;;4977724;28;20098;-36
2024/03/25 00:42:07;;;;;;;5.70;2.00;;;9.80;77.80;;;;;;4982455;28;20029;-37
2024/03/25 00:44:33;;;;;;;4.97;2.15;;;9.80;77.80;;;;;;4969856;28;20613;-38
2024/03/25 00:46:58;;;;;;;5.40;2.15;;;9.80;77.80;;;;;;4969982;28;20058;-33
2024/03/25 00:49:24;;;;;;;4.65;1.90;;;9.80;77.90;;;;;;4969027;28;20466;-39
2024/03/25 00:51:50;;;;;;;5.40;2.13;;;9.70;77.80;;;;;;4967336;28;20118;-35
2024/03/25 00:54:16;;;;;;;5.13;1.88;;;9.70;77.80;;;;;;4979762;28;20105;-35
2024/03/25 00:56:42;;;;;;;5.90;2.30;;;9.70;77.80;;;;;;4987446;28;20054;-38
2024/03/25 00:59:07;;;;;;;5.22;2.00;;;9.60;77.80;;;;;;4975254;28;20062;-37
2024/03/25 01:01:35;;;;;;;4.32;1.80;;;9.70;77.80;;;;;;4973229;28;20030;-38
2024/03/25 01:04:02;;;;;;;4.97;2.10;;;9.70;77.80;;;;;;4969773;28;20038;-37
2024/03/25 01:06:27;;;;;;;5.63;2.05;;;9.60;77.70;;;;;;4978579;28;20030;-37
2024/03/25 01:08:53;;;;;;;5.53;2.17;;;9.60;77.80;;;;;;4968660;28;20078;-37
2024/03/25 01:11:19;;;;;;;5.68;1.88;;;9.60;77.80;;;;;;4965547;28;20166;-37
2024/03/25 01:13:46;;;;;;;4.25;1.85;;;9.60;77.80;;;;;;4978568;28;20030;-34
2024/03/25 01:16:12;;;;;;;6.60;2.13;;;9.60;77.90;;;;;;4976993;28;20042;-34
2024/03/25 01:18:38;;;;;;;3.38;1.80;;;9.60;77.80;;;;;;4978963;28;20078;-34
2024/03/25 01:21:04;;;;;;;4.07;2.10;;;9.60;77.80;;;;;;4979407;28;20039;-37
2024/03/25 01:23:30;;;;;;;6.22;1.88;;;9.60;77.80;;;;;;4970195;28;20027;-33
2024/03/25 01:25:56;;;;;;;6.35;2.13;;;9.50;77.80;;;;;;4981491;28;20027;-34
2024/03/25 01:28:22;;;;;;;7.13;2.63;;;9.50;77.80;;;;;;4982540;28;20034;-35
2024/03/25 01:30:48;;;;;;;6.22;2.17;;;9.50;77.80;;;;;;4980649;28;20597;-36
2024/03/25 01:33:14;;;;;;;5.55;2.28;;;9.50;77.80;;;;;;4951886;28;20033;-32
2024/03/25 01:35:40;;;;;;;6.45;2.25;;;9.50;77.80;;;;;;4969467;28;20604;-37
2024/03/25 01:38:06;;;;;;;5.28;2.13;;;9.40;77.80;;;;;;4975851;28;20027;-36
2024/03/25 01:40:32;;;;;;;6.68;2.42;;;9.40;77.80;;;;;;4978586;28;20076;-32
2024/03/25 01:42:58;;;;;;;5.85;2.03;;;9.40;77.80;;;;;;4978947;28;20046;-35
2024/03/25 01:45:26;;;;;;;5.90;2.30;;;9.40;77.90;;;;;;4961928;28;20157;-38
2024/03/25 01:47:53;;;;;;;5.20;2.00;;;9.40;77.90;;;;;;4981525;28;20268;-36
2024/03/25 01:50:19;;;;;;;5.70;2.17;;;9.40;77.90;;;;;;4968807;28;20023;-33
2024/03/25 01:52:45;;;;;;;4.97;2.10;;;9.40;77.90;;;;;;4977928;28;20038;-38
2024/03/25 01:55:17;;;;;;;5.63;2.20;;;9.30;77.90;;;;;;4970442;28;20058;-38
2024/03/25 01:57:44;;;;;;;7.50;2.20;;;9.40;77.90;;;;;;4959142;28;20058;-38
2024/03/25 02:00:11;;;;;;;5.72;2.22;;;9.30;78.50;;;;;;4978501;28;20046;-38
2024/03/25 02:02:46;;;;;;;6.05;2.00;;;9.30;77.90;;;;;;4967089;28;20090;-33
2024/03/25 02:05:16;;;;;;;5.63;2.15;;;9.30;77.90;;;;;;4958330;28;20037;-35
2024/03/25 02:07:43;;;;;;;6.95;2.08;;;9.30;77.90;;;;;;4965480;28;20027;-36
2024/03/25 02:10:15;;;;;;;5.50;2.20;;;9.30;77.90;;;;;;4978945;28;20101;-34
2024/03/25 02:12:42;;;;;;;6.22;2.30;;;9.20;77.90;;;;;;4965729;28;20034;-31
2024/03/25 02:15:08;;;;;;;5.93;2.33;;;9.20;77.90;;;;;;4967024;28;20023;-36
2024/03/25 02:17:35;;;;;;;5.18;2.00;;;9.20;77.90;;;;;;4981272;28;20026;-36
2024/03/25 02:20:02;;;;;;;4.95;2.03;;;9.20;77.90;;;;;;4976995;28;20022;-38
2024/03/25 02:22:29;;;;;;;7.75;2.40;;;9.20;77.90;;;;;;4973679;28;20023;-35
2024/03/25 02:24:57;;;;;;;6.25;2.30;;;9.20;77.90;;;;;;4976974;28;20038;-35
2024/03/25 02:27:24;;;;;;;4.70;2.40;;;9.20;78.00;;;;;;4979285;28;20047;-34
2024/03/25 02:29:50;;;;;;;4.40;1.85;;;9.20;77.90;;;;;;4966430;28;20031;-39
2024/03/25 02:32:16;;;;;;;6.35;2.17;;;9.10;77.90;;;;;;4973249;28;20028;-31
2024/03/25 02:34:52;;;;;;;6.82;2.40;;;9.10;77.90;;;;;;4969162;28;20505;-37
2024/03/25 02:37:18;;;;;;;4.20;1.90;;;9.10;77.90;;;;;;4975446;28;20169;-32
2024/03/25 02:39:45;;;;;;;8.15;2.42;;;9.10;77.90;;;;;;4970607;28;20041;-38
2024/03/25 02:42:10;;;;;;;5.22;2.40;;;9.10;78.00;;;;;;4968024;28;20077;-37
2024/03/25 02:44:37;;;;;;;6.90;2.35;;;9.10;77.90;;;;;;4977388;28;20023;-36
2024/03/25 02:47:04;;;;;;;4.53;2.17;;;9.10;78.00;;;;;;4980833;28;20025;-36
2024/03/25 02:49:30;;;;;;;4.25;2.03;;;9.10;78.60;;;;;;4972859;28;20041;-36
2024/03/25 02:51:56;;;;;;;6.75;2.35;;;9.00;78.00;;;;;;4962202;28;20030;-33
2024/03/25 02:54:21;;;;;;;5.13;2.40;;;9.00;78.00;;;;;;4973642;28;20134;-38
2024/03/25 02:56:47;;;;;;;6.85;2.30;;;9.00;78.00;;;;;;4971077;28;20722;-36
2024/03/25 02:59:13;;;;;;;6.72;2.40;;;9.00;78.00;;;;;;4982178;28;20029;-35
2024/03/25 03:01:38;;;;;;;7.57;2.38;;;9.00;78.00;;;;;;4953414;28;20221;-37
2024/03/25 03:04:04;;;;;;;6.07;2.42;;;9.00;78.00;;;;;;4970424;28;20059;-35
2024/03/25 03:06:30;;;;;;;4.72;2.10;;;9.00;78.00;;;;;;4976302;28;20090;-38
2024/03/25 03:08:55;;;;;;;7.28;2.40;;;8.90;77.90;;;;;;4972498;28;20051;-34
2024/03/25 03:11:21;;;;;;;6.43;2.10;;;8.90;77.90;;;;;;4973130;28;20079;-32
2024/03/25 03:13:47;;;;;;;5.38;2.33;;;8.90;78.00;;;;;;4981176;28;20023;-37
2024/03/25 03:16:12;;;;;;;5.90;2.33;;;8.90;78.00;;;;;;4976259;28;20025;-36
2024/03/25 03:18:39;;;;;;;7.15;2.40;;;8.90;78.00;;;;;;4954631;28;20368;-34
2024/03/25 03:21:05;;;;;;;5.30;2.33;;;8.90;78.00;;;;;;4973922;28;20049;-34
2024/03/25 03:23:30;;;;;;;5.97;2.10;;;8.90;78.00;;;;;;4965429;28;20480;-35
2024/03/25 03:25:59;;;;;;;7.43;2.65;;;8.90;78.00;;;;;;4970317;28;20023;-33
2024/03/25 03:28:25;;;;;;;4.72;2.10;;;8.90;78.70;;;;;;4980782;28;20030;-38
2024/03/25 03:30:51;;;;;;;5.60;2.13;;;8.90;78.00;;;;;;4989111;28;20034;-37
2024/03/25 03:33:17;;;;;;;4.97;2.58;;;8.80;78.00;;;;;;4965808;28;20035;-32
2024/03/25 03:35:43;;;;;;;5.97;2.25;;;8.80;78.00;;;;;;4966334;28;20227;-35
2024/03/25 03:38:08;;;;;;;5.80;2.28;;;8.80;78.00;;;;;;4973258;28;20179;-36
2024/03/25 03:40:34;;;;;;;7.03;2.78;;;8.80;78.00;;;;;;4966804;28;20078;-34
2024/03/25 03:43:00;;;;;;;5.20;2.35;;;8.80;78.00;;;;;;4979313;28;20026;-38
2024/03/25 03:45:26;;;;;;;6.15;2.78;;;8.80;78.00;;;;;;4973528;28;20069;-34
2024/03/25 03:47:51;;;;;;;5.97;2.80;;;8.80;78.00;;;;;;4973630;28;20027;-36
2024/03/25 03:50:17;;;;;;;5.78;2.45;;;8.70;78.00;;;;;;4962280;28;20031;-34
2024/03/25 03:52:43;;;;;;;6.03;2.40;;;8.70;78.00;;;;;;4962891;28;20030;-34
2024/03/25 03:55:08;;;;;;;4.40;2.33;;;8.70;78.00;;;;;;4982880;28;20201;-34
2024/03/25 03:57:34;;;;;;;8.88;2.92;;;8.70;78.00;;;;;;4989081;28;20034;-35
2024/03/25 04:00:00;;;;;;;6.07;2.38;;;8.70;78.00;;;;;;4984486;28;20033;-37
2024/03/25 04:02:28;;;;;;;5.78;2.50;;;8.70;78.00;;;;;;4982416;28;20030;-35
2024/03/25 04:04:54;;;;;;;5.55;2.65;;;8.70;78.00;;;;;;4968765;28;20073;-34
2024/03/25 04:07:23;;;;;;;6.20;2.72;;;8.70;78.10;;;;;;4981903;28;20042;-36
2024/03/25 04:09:49;;;;;;;5.57;2.78;;;8.60;78.00;;;;;;4978366;28;20093;-38
2024/03/25 04:12:14;;;;;;;5.72;2.60;;;8.60;78.00;;;;;;4975730;28;20566;-31
2024/03/25 04:14:40;;;;;;;8.63;3.03;;;8.60;78.00;;;;;;4974138;28;20102;-35
2024/03/25 04:17:06;;;;;;;8.05;3.25;;;8.60;78.60;;;;;;4982639;28;20042;-33
2024/03/25 04:19:32;;;;;;;5.65;2.65;;;8.60;78.00;;;;;;4975187;28;20046;-33
2024/03/25 04:21:57;;;;;;;4.43;2.53;;;8.60;78.00;;;;;;4979780;28;20035;-35
2024/03/25 04:24:25;;;;;;;6.90;3.13;;;8.60;78.00;;;;;;4982341;28;20497;-38
2024/03/25 04:26:50;;;;;;;6.30;2.78;;;8.50;78.00;;;;;;4973361;28;20090;-37
2024/03/25 04:29:16;;;;;;;7.78;2.70;;;8.50;78.00;;;;;;4973049;28;20078;-35
2024/03/25 04:31:42;;;;;;;7.05;3.00;;;8.50;78.00;;;;;;4981023;28;20037;-33
2024/03/25 04:34:07;;;;;;;5.10;2.83;;;8.50;78.00;;;;;;4982179;28;20019;-33
2024/03/25 04:36:33;;;;;;;7.35;3.13;;;8.50;78.00;;;;;;4972407;28;20027;-33
2024/03/25 04:38:59;;;;;;;6.10;2.83;;;8.50;78.00;;;;;;4971316;28;20380;-36
2024/03/25 04:41:24;;;;;;;7.80;3.08;;;8.50;78.00;;;;;;4971595;28;20134;-36
2024/03/25 04:43:50;;;;;;;5.28;3.00;;;8.50;78.00;;;;;;4976371;28;20031;-40
2024/03/25 04:46:16;;;;;;;5.88;2.85;;;8.40;78.00;;;;;;4975141;28;20102;-40
2024/03/25 04:48:41;;;;;;;6.32;3.17;;;8.40;78.00;;;;;;4976547;28;20031;-40
2024/03/25 04:51:09;;;;;;;5.30;2.63;;;8.40;78.00;;;;;;4967031;28;20020;-40
2024/03/25 04:53:34;;;;;;;8.20;3.00;;;8.40;78.00;;;;;;4963898;28;20023;-35
2024/03/25 04:56:00;;;;;;;7.13;3.00;;;8.40;78.00;;;;;;4976978;28;20073;-34
2024/03/25 04:58:26;;;;;;;5.43;2.90;;;8.40;78.00;;;;;;4978114;28;20030;-36
2024/03/25 05:00:52;;;;;;;7.07;3.03;;;8.40;78.00;;;;;;4971944;28;20380;-37
2024/03/25 05:03:18;;;;;;;7.72;3.22;;;8.30;78.00;;;;;;4971073;28;20472;-38
2024/03/25 05:05:44;;;;;;;6.82;3.17;;;8.30;78.00;;;;;;4968481;28;20037;-36
2024/03/25 05:08:10;;;;;;;5.97;3.58;;;8.30;78.00;;;;;;4986998;28;20101;-36
2024/03/25 05:10:35;;;;;;;5.75;2.80;;;8.30;78.00;;;;;;4971389;28;20091;-38
2024/03/25 05:13:01;;;;;;;6.60;3.33;;;8.30;78.00;;;;;;4975903;28;20454;-38
2024/03/25 05:15:27;;;;;;;6.88;3.03;;;8.30;78.70;;;;;;4957115;28;20026;-35
2024/03/25 05:17:54;;;;;;;5.88;3.10;;;8.30;78.00;;;;;;4980597;28;20022;-39
2024/03/25 05:20:21;;;;;;;5.28;2.83;;;8.30;78.00;;;;;;4970334;28;20162;-38
2024/03/25 05:22:47;;;;;;;7.00;3.60;;;8.20;78.00;;;;;;4977051;28;20233;-34
2024/03/25 05:25:13;;;;;;;7.03;3.05;;;8.20;78.10;;;;;;4974274;28;20035;-38
2024/03/25 05:27:39;;;;;;;5.25;3.00;;;8.20;78.10;;;;;;4986789;28;20090;-36
2024/03/25 05:30:05;;;;;;;6.55;3.17;;;8.10;78.10;;;;;;4969618;28;20027;-32
2024/03/25 05:32:31;;;;;;;6.53;3.47;;;8.10;78.10;;;;;;4975122;28;20038;-32
2024/03/25 05:34:57;;;;;;;6.47;3.25;;;8.10;78.10;;;;;;4974822;28;20023;-37
2024/03/25 05:37:22;;;;;;;6.00;2.75;;;8.10;78.10;;;;;;4976165;28;20035;-37
2024/03/25 05:39:48;;;;;;;6.43;2.88;;;8.10;78.20;;;;;;4973739;28;20042;-39
2024/03/25 05:42:14;;;;;;;6.65;2.67;;;8.10;78.20;;;;;;4980716;28;20199;-37
2024/03/25 05:44:40;;;;;;;6.43;2.90;;;8.10;78.20;;;;;;4974050;28;20033;-34
2024/03/25 05:47:05;;;;;;;6.72;3.30;;;8.10;78.20;;;;;;4976036;28;20011;-36
2024/03/25 05:49:31;;;;;;;7.13;2.97;;;8.00;78.20;;;;;;4970708;28;20050;-36
2024/03/25 05:51:57;;;;;;;5.53;2.80;;;8.00;78.20;;;;;;4967683;28;20027;-40
2024/03/25 05:54:22;;;;;;;6.47;3.00;;;8.00;78.20;;;;;;4978386;28;20070;-33
2024/03/25 05:56:48;;;;;;;8.95;2.92;;;8.00;78.30;;;;;;4974735;28;20031;-36
2024/03/25 05:59:14;;;;;;;5.82;3.00;;;8.00;78.20;;;;;;4972773;28;20031;-36
2024/03/25 06:01:40;;;;;;;7.32;3.10;;;8.00;78.30;;;;;;4973551;28;20035;-36
2024/03/25 06:04:06;;;;;;;4.95;3.17;;;8.00;78.30;;;;;;4979884;28;20035;-35
2024/03/25 06:06:32;;;;;;;4.97;2.80;;;8.00;78.30;;;;;;4979494;28;20018;-36
2024/03/25 06:08:58;;;;;;;5.25;2.72;;;8.00;78.30;;;;;;4976915;28;20026;-35
2024/03/25 06:11:23;;;;;;;6.82;3.13;;;7.90;78.30;;;;;;4977759;28;20038;-36
2024/03/25 06:13:49;;;;;;;5.68;3.05;;;7.90;78.30;;;;;;4974806;28;20050;-32
2024/03/25 06:16:15;;;;;;;4.70;2.70;;;7.90;78.30;;;;;;4968911;28;20035;-35
2024/03/25 06:18:41;;;;;;;6.55;2.90;;;7.90;78.30;;;;;;4974416;28;20407;-36
2024/03/25 06:21:07;;;;;;;6.32;3.42;;;7.90;78.30;;;;;;4976818;28;20077;-36
2024/03/25 06:23:33;;;;;;;6.65;2.92;;;7.90;78.30;;;;;;4969495;28;20143;-35
2024/03/25 06:25:58;;;;;;;6.97;2.92;;;7.90;78.30;;;;;;4969216;28;20031;-38
2024/03/25 06:28:24;;;;;;;8.38;3.53;;;7.90;78.30;;;;;;4969239;28;20028;-33
2024/03/25 06:36:21;;;;;;;;;;;7.90;78.30;;;;;;4975478;28;20402;-36
2024/03/25 06:38:47;;;;;;;5.38;2.75;;;7.70;78.20;;;;;;4979875;28;19965;-35
2024/03/25 06:41:13;;;;;;;6.20;2.92;;;7.80;78.30;;;;;;4988246;28;20434;-35
2024/03/25 06:43:39;;;;;;;7.43;3.40;;;7.80;78.30;;;;;;4978431;28;20030;-33
2024/03/25 06:46:06;;;;;;;6.43;2.65;;;7.80;78.30;;;;;;4975404;28;20027;-33
2024/03/25 06:48:32;;;;;;;4.20;2.70;;;7.80;78.30;;;;;;4977107;28;20019;-38
2024/03/25 06:50:59;;;;;;;6.85;2.85;;;7.80;78.30;;;;;;4964539;28;20031;-33
2024/03/25 06:53:25;;;;;;;5.95;2.83;;;7.80;78.40;;;;;;4980732;28;20029;-34
2024/03/25 06:55:51;;;;;;;5.43;2.72;;;7.80;78.40;;;;;;4975265;28;20066;-37
2024/03/25 06:58:19;;;;;;;6.60;2.92;;;7.80;78.40;;;;;;4988301;28;20342;-37
2024/03/25 07:00:44;;;;;;;5.95;3.20;;;7.80;78.40;;;;;;4977412;28;20038;-37
2024/03/25 07:03:10;;;;;;;5.47;2.95;;;7.80;78.40;;;;;;4966935;28;20521;-32
2024/03/25 07:05:36;;;;;;;5.72;2.90;;;7.80;78.40;;;;;;4977505;28;20051;-37
2024/03/25 07:08:02;;;;;;;6.07;2.83;;;7.80;78.30;;;;;;4986845;28;20023;-35
2024/03/25 07:10:28;;;;;;;5.95;3.22;;;7.80;78.40;;;;;;4971584;28;20031;-35
2024/03/25 07:12:53;;;;;;;5.95;2.60;;;7.80;78.40;;;;;;4973548;28;20394;-36
2024/03/25 07:15:19;;;;;;;5.70;2.85;;;7.80;78.40;;;;;;4967011;28;20038;-32
2024/03/25 07:17:45;;;;;;;5.25;2.92;;;7.80;78.40;;;;;;4977665;28;20108;-38
2024/03/25 07:20:11;;;;;;;5.97;2.88;;;7.80;78.40;;;;;;4971947;28;20545;-36
2024/03/25 07:22:36;;;;;;;7.47;3.22;;;7.80;78.40;;;;;;4978002;28;20037;-37
2024/03/25 07:25:02;;;;;;;5.53;2.70;;;7.80;78.30;;;;;;4981814;28;20027;-37
2024/03/25 07:27:28;;;;;;;4.97;2.53;;;7.80;78.30;;;;;;4974401;28;20066;-35
2024/03/25 07:29:54;;;;;;;4.32;2.45;;;7.90;78.40;;;;;;4970156;28;20393;-37
2024/03/25 07:32:19;;;;;;;5.13;2.80;;;7.90;78.40;;;;;;4976752;28;20030;-34
2024/03/25 07:34:46;;;;;;;5.75;2.70;;;7.80;78.30;;;;;;4977253;28;20038;-34
2024/03/25 07:37:11;;;;;;;6.03;3.00;;;7.80;78.40;;;;;;4980996;28;20084;-34
2024/03/25 07:39:37;;;;;;;6.05;3.00;;;7.80;78.30;;;;;;4975986;28;20022;-37
2024/03/25 07:42:03;;;;;;;4.32;2.78;;;7.90;78.40;;;;;;4980389;28;20035;-36
2024/03/25 07:44:28;;;;;;;5.05;2.53;;;7.80;78.30;;;;;;4977295;28;20065;-38
2024/03/25 07:46:55;;;;;;;5.45;2.70;;;7.90;78.40;;;;;;4980816;28;20022;-35
2024/03/25 07:49:21;;;;;;;4.32;2.42;;;7.90;79.10;;;;;;4969946;28;20205;-36
2024/03/25 07:51:46;;;;;;;5.15;2.60;;;7.90;78.50;;;;;;4962985;28;20030;-36
2024/03/25 07:54:16;;;;;;;5.22;2.72;;;7.90;78.40;;;;;;4964423;28;20055;-32
2024/03/25 07:56:42;;;;;;;5.20;2.78;;;7.90;78.40;;;;;;4966151;28;20019;-36
2024/03/25 07:59:08;;;;;;;4.82;2.67;;;7.90;78.40;;;;;;4976163;28;20101;-32
2024/03/25 08:01:33;;;;;;;5.53;2.92;;;7.90;78.40;;;;;;4964767;28;20047;-36
2024/03/25 08:03:59;;;;;;;6.32;2.85;;;7.90;78.40;;;;;;4963584;28;20193;-35
2024/03/25 08:06:25;;;;;;;4.93;2.70;;;7.90;78.40;;;;;;4967333;28;20054;-32
2024/03/25 08:08:51;;;;;;;3.80;2.70;;;7.90;78.40;;;;;;4987641;28;20038;-37
2024/03/25 08:11:17;;;;;;;5.10;2.65;;;7.90;78.40;;;;;;4973795;28;20031;-36
2024/03/25 08:13:42;;;;;;;5.47;2.70;;;8.00;78.40;;;;;;4965334;28;20110;-34
2024/03/25 08:16:08;;;;;;;5.03;2.83;;;8.00;79.10;;;;;;4968254;28;20123;-33
2024/03/25 08:18:34;;;;;;;4.00;2.30;;;8.00;78.40;;;;;;4974283;28;20380;-33
2024/03/25 08:20:59;;;;;;;4.65;2.60;;;8.00;78.50;;;;;;4963849;28;20047;-34
2024/03/25 08:23:25;;;;;;;6.70;2.60;;;8.00;78.50;;;;;;4979253;28;20054;-36
2024/03/25 08:25:51;;;;;;;5.63;2.83;;;8.00;78.50;;;;;;4980263;28;20027;-38
2024/03/25 08:28:17;;;;;;;5.53;2.75;;;8.00;78.40;;;;;;4967774;28;20122;-37
2024/03/25 08:30:42;;;;;;;4.72;2.80;;;8.00;78.40;;;;;;4973911;28;20041;-37
2024/03/25 08:33:08;;;;;;;7.03;3.10;;;8.00;78.40;;;;;;4970163;28;20027;-33
2024/03/25 08:35:34;;;;;;;5.32;2.55;;;8.10;78.50;;;;;;4969253;28;20066;-34
2024/03/25 08:37:59;;;;;;;6.38;2.72;;;8.10;78.50;;;;;;4982785;28;20046;-34
2024/03/25 08:40:25;;;;;;;7.95;2.90;;;8.10;78.50;;;;;;4975289;28;20157;-36
2024/03/25 08:42:51;;;;;;;6.57;2.92;;;8.10;78.50;;;;;;4952834;28;20043;-33
2024/03/25 08:45:17;;;;;;;5.30;2.95;;;8.10;78.40;;;;;;4978425;28;20031;-37
2024/03/25 08:47:42;;;;;;;6.22;2.97;;;8.10;78.40;;;;;;4965359;28;20543;-37
2024/03/25 08:50:08;;;;;;;7.85;3.15;;;8.20;78.50;;;;;;4972462;28;20130;-34
2024/03/25 08:52:34;;;;;;;6.38;3.05;;;8.20;78.40;;;;;;4964316;28;20112;-38
2024/03/25 08:55:00;;;;;;;8.93;3.33;;;8.20;78.40;;;;;;4989293;28;20047;-36
2024/03/25 08:57:25;;;;;;;7.18;3.15;;;8.20;78.40;;;;;;4985287;28;20113;-34
2024/03/25 08:59:51;;;;;;;5.03;2.85;;;8.30;78.40;;;;;;4972737;28;20018;-36
2024/03/25 09:02:17;;;;;;;6.70;3.28;;;8.30;78.40;;;;;;4972078;28;20553;-37
2024/03/25 09:04:43;;;;;;;6.60;2.97;;;8.30;78.40;;;;;;4968057;28;20030;-34
2024/03/25 09:07:10;;;;;;;5.72;3.10;;;8.40;78.40;;;;;;4976995;28;20030;-31
2024/03/25 09:12:19;;;;;;;4.90;2.95;;;8.40;78.40;;;;;;4980969;28;20127;-35
2024/03/25 09:14:45;;;;;;;5.45;2.92;;;8.50;78.40;;;;;;4967653;28;20031;-34
2024/03/25 09:17:11;;;;;;;6.22;3.33;;;8.50;78.40;;;;;;4978091;28;20023;-32
2024/03/25 09:19:37;;;;;;;6.35;3.30;;;8.60;78.40;;;;;;4975948;28;20034;-34
2024/03/25 09:22:03;;;;;;;5.25;3.10;;;8.60;78.40;;;;;;4960386;28;20053;-36
2024/03/25 09:24:29;;;;;;;5.50;2.65;;;8.60;78.40;;;;;;4972238;28;20023;-38
2024/03/25 09:26:54;;;;;;;5.72;3.20;;;8.70;78.40;;;;;;4966822;28;20913;-37
2024/03/25 09:29:20;;;;;;;5.78;2.92;;;8.70;78.30;;;;;;4971416;28;20115;-37
2024/03/25 09:31:46;;;;;;;5.55;3.10;;;8.80;78.30;;;;;;4971345;28;20349;-35
2024/03/25 09:34:12;;;;;;;5.68;3.03;;;8.80;78.30;;;;;;4979608;28;20027;-36
2024/03/25 09:36:38;;;;;;;5.68;2.92;;;8.80;78.30;;;;;;4974484;28;20046;-33
2024/03/25 09:39:04;;;;;;;4.43;2.88;;;8.90;78.30;;;;;;4971175;28;20011;-37
2024/03/25 09:41:34;;;;;;;6.07;3.05;;;8.90;78.30;;;;;;4971141;28;20043;-35
2024/03/25 09:44:00;;;;;;;5.80;2.95;;;9.00;78.30;;;;;;4973237;28;20066;-38
2024/03/25 09:46:26;;;;;;;6.90;3.10;;;9.00;78.30;;;;;;4975170;28;20026;-36
2024/03/25 09:48:53;;;;;;;8.35;3.08;;;9.00;79.00;;;;;;4975797;28;20106;-34
2024/03/25 09:51:20;;;;;;;6.68;3.13;;;9.10;78.30;;;;;;4965147;28;20022;-40
2024/03/25 09:53:46;;;;;;;6.93;3.05;;;9.10;78.30;;;;;;4964735;28;20035;-39
2024/03/25 09:56:13;;;;;;;7.47;2.83;;;9.10;78.30;;;;;;4968560;28;20078;-40
2024/03/25 09:58:39;;;;;;;4.80;2.97;;;9.20;78.30;;;;;;4975872;28;20083;-39
2024/03/25 10:01:05;;;;;;;5.30;2.95;;;9.20;78.30;;;;;;4959747;28;21453;-39
2024/03/25 10:03:31;;;;;;;5.32;2.75;;;9.30;78.30;;;;;;4975408;28;20023;-40
2024/03/25 10:05:56;;;;;;;6.10;3.10;;;9.30;78.20;;;;;;4978656;28;20034;-39
2024/03/25 10:08:23;;;;;;;6.22;3.00;;;9.40;78.30;;;;;;4979931;28;20724;-40
2024/03/25 10:10:50;;;;;;;6.20;2.97;;;9.40;78.20;;;;;;4959198;28;20015;-39
2024/03/25 10:13:16;;;;;;;6.43;3.10;;;9.50;78.20;;;;;;4976050;28;20027;-39
2024/03/25 10:15:46;;;;;;;5.40;3.08;;;9.50;78.20;;;;;;4969855;28;20130;-39
2024/03/25 10:18:12;;;;;;;4.85;2.90;;;9.60;78.20;;;;;;4982935;28;20023;-37
2024/03/25 10:20:38;;;;;;;6.43;2.85;;;9.60;78.10;;;;;;4976907;28;20053;-40
2024/03/25 10:23:04;;;;;;;6.50;2.97;;;9.70;78.10;;;;;;4979293;28;20071;-40
2024/03/25 10:25:30;;;;;;;5.78;2.85;;;9.70;78.10;;;;;;4978135;28;20498;-37
2024/03/25 10:27:58;;;;;;;4.95;2.75;;;9.80;78.10;;;;;;4972358;28;20082;-40
2024/03/25 10:30:24;;;;;;;7.57;2.85;;;9.90;78.10;;;;;;4975932;28;20023;-41
2024/03/25 10:33:03;;;;;;;5.75;2.85;;;9.90;78.10;;;;;;4976838;28;20027;-39
2024/03/25 10:35:31;;;;;;;5.10;2.72;;;10.00;78.10;;;;;;4971921;28;20035;-41
2024/03/25 10:37:59;;;;;;;6.53;2.63;;;10.10;78.70;;;;;;4974342;28;20031;-41
2024/03/25 10:40:32;;;;;;;5.90;3.00;;;10.10;78.00;;;;;;4974210;28;20043;-41
2024/03/25 10:43:17;;;;;;;5.15;2.67;;;10.20;78.10;;;;;;4960446;28;20031;-40
2024/03/25 10:45:54;;;;;;;7.47;2.80;;;10.20;78.10;;;;;;4981638;28;20035;-40
2024/03/25 10:48:26;;;;;;;5.97;2.70;;;10.30;78.10;;;;;;4977332;28;20030;-41
2024/03/25 10:50:54;;;;;;;5.45;2.75;;;10.40;78.00;;;;;;4979420;28;20027;-41
2024/03/25 10:53:23;;;;;;;4.05;2.60;;;10.50;78.10;;;;;;4979030;28;20106;-41
2024/03/25 10:55:50;;;;;;;5.47;2.65;;;10.50;78.00;;;;;;4977415;28;20050;-39
2024/03/25 10:58:17;;;;;;;4.00;2.50;;;10.60;78.00;;;;;;4982364;28;20046;-39
2024/03/25 11:00:45;;;;;;;4.43;2.60;;;10.60;78.00;;;;;;4975846;28;20117;-40
2024/03/25 11:03:11;;;;;;;5.47;2.80;;;10.70;78.00;;;;;;4973410;28;20030;-42
2024/03/25 11:05:38;;;;;;;7.03;3.17;;;10.80;78.00;;;;;;4982845;28;20027;-43
2024/03/25 11:08:14;;;;;;;4.80;2.97;;;10.90;78.00;;;;;;4987209;28;20042;-40
2024/03/25 11:10:43;;;;;;;5.43;2.85;;;10.90;78.00;;;;;;4961961;28;20098;-40
2024/03/25 11:13:29;;;;;;;5.43;2.90;;;11.00;78.00;;;;;;4982835;28;20038;-39
2024/03/25 11:15:58;;;;;;;6.32;2.92;;;11.10;78.00;;;;;;4983530;28;20090;-39
2024/03/25 11:18:25;;;;;;;4.57;2.90;;;11.10;77.90;;;;;;4981335;28;20461;-40
2024/03/25 11:21:03;;;;;;;4.72;2.80;;;11.20;78.00;;;;;;4983523;28;20068;-40
2024/03/25 11:23:42;;;;;;;4.32;2.70;;;11.30;78.00;;;;;;4977785;28;20051;-40
2024/03/25 11:26:30;;;;;;;4.13;2.70;;;11.30;77.90;;;;;;4975768;28;20050;-40
2024/03/25 11:28:56;;;;;;;5.50;2.67;;;11.40;78.00;;;;;;4979794;28;20074;-37
2024/03/25 11:31:26;;;;;;;5.97;2.70;;;11.40;77.90;;;;;;4978412;28;20117;-41
2024/03/25 11:33:52;;;;;;;5.07;2.97;;;11.50;78.00;;;;;;4962199;28;20031;-40
2024/03/25 11:36:18;;;;;;;6.47;2.47;;;11.60;78.00;;;;;;4977000;28;20090;-39
2024/03/25 11:38:46;;;;;;;4.80;2.60;;;11.60;78.00;;;;;;4976083;28;20050;-40
2024/03/25 11:41:12;;;;;;;4.53;2.50;;;11.60;78.00;;;;;;4970915;28;20047;-40
2024/03/25 11:43:38;;;;;;;3.97;2.50;;;11.70;78.00;;;;;;4964413;28;20032;-40
2024/03/25 11:46:05;;;;;;;4.72;2.58;;;11.80;78.00;;;;;;4969314;28;20640;-41
2024/03/25 11:48:32;;;;;;;4.45;3.00;;;11.80;77.90;;;;;;4971020;28;20074;-39
2024/03/25 11:50:58;;;;;;;6.57;3.13;;;11.90;77.90;;;;;;4978853;28;20053;-40
2024/03/25 11:53:24;;;;;;;4.93;2.83;;;12.00;78.00;;;;;;4981808;28;20027;-41
2024/03/25 11:55:51;;;;;;;5.15;2.65;;;12.00;77.90;;;;;;4972427;28;20035;-39
2024/03/25 11:58:17;;;;;;;4.20;2.60;;;12.10;77.90;;;;;;4987413;28;20069;-40
2024/03/25 12:00:51;;;;;;;4.32;2.72;;;12.20;77.90;;;;;;4978060;28;20039;-39
2024/03/25 12:03:20;;;;;;;4.03;2.63;;;12.20;77.90;;;;;;4980532;28;20034;-35
2024/03/25 12:05:46;;;;;;;4.03;2.80;;;12.30;77.90;;;;;;4976849;28;20325;-35
2024/03/25 12:08:13;;;;;;;6.00;2.80;;;12.30;77.90;;;;;;4981138;28;20475;-35
2024/03/25 12:13:26;;;;;;;;;;;12.40;78.50;;;;;;4976289;28;20033;-40
2024/03/25 12:15:51;;;;;;;4.53;2.47;;;12.40;77.70;;;;;;4977153;28;19910;-40
2024/03/25 12:18:18;;;;;;;5.00;2.72;;;12.50;77.70;;;;;;4974858;28;20031;-31
2024/03/25 12:20:48;;;;;;;5.28;3.15;;;12.60;77.70;;;;;;4975593;28;20071;-37
2024/03/25 12:23:14;;;;;;;4.15;2.85;;;12.70;77.80;;;;;;4977172;28;20116;-39
2024/03/25 12:25:41;;;;;;;6.32;2.80;;;12.70;77.80;;;;;;4969208;28;20031;-33
2024/03/25 12:28:09;;;;;;;6.50;3.17;;;12.80;77.70;;;;;;4985663;28;20026;-39
2024/03/25 12:30:57;;;;;;;10.70;2.95;;;12.90;77.80;;;;;;4967181;28;20031;-37
2024/03/25 12:33:24;;;;;;;9.88;3.33;;;12.90;77.70;;;;;;4950271;28;20033;-39
2024/03/25 12:35:51;;;;;;;9.60;3.05;;;12.90;77.60;;;;;;4977665;28;20037;-42
2024/03/25 12:38:22;;;;;;;6.60;2.78;;;13.00;77.70;;;;;;4976636;28;20456;-38
2024/03/25 12:40:48;;;;;;;4.75;3.15;;;13.10;77.80;;;;;;4977048;28;20042;-39
2024/03/25 12:43:15;;;;;;;4.18;2.55;;;13.10;77.60;;;;;;4975634;28;20037;-36
2024/03/25 12:45:42;;;;;;;6.15;2.92;;;13.20;77.60;;;;;;4964049;28;20547;-35
2024/03/25 12:48:08;;;;;;;4.63;2.63;;;13.30;77.70;;;;;;4988287;28;20045;-36
2024/03/25 12:50:34;;;;;;;4.68;3.08;;;13.30;77.60;;;;;;4971577;28;20031;-39
2024/03/25 12:53:00;;;;;;;5.38;2.83;;;13.40;77.70;;;;;;4949772;28;20035;-40
2024/03/25 12:55:26;;;;;;;6.78;3.08;;;13.40;77.50;;;;;;4978860;28;20086;-39
2024/03/25 12:57:52;;;;;;;4.38;2.80;;;13.50;77.50;;;;;;4970519;28;20026;-39
2024/03/25 13:00:18;;;;;;;4.13;2.80;;;13.60;77.50;;;;;;4978830;28;20038;-40
2024/03/25 13:02:44;;;;;;;5.85;3.22;;;13.60;77.40;;;;;;4971322;28;20058;-37